createdAt,value
2023-05-24T00:02:08.773Z,11.95
2023-05-24T00:04:35.469Z,13.38
2023-05-24T00:07:03.489Z,6.65
2023-05-24T00:09:30.973Z,8.32
2023-05-24T00:11:57.826Z,10.98
2023-05-24T00:14:25.068Z,9.73
2023-05-24T00:16:51.869Z,11.38
2023-05-24T00:19:18.864Z,5.07
2023-05-24T00:21:46.033Z,11.32
2023-05-24T00:24:12.920Z,10.27
2023-05-24T00:26:40.111Z,13.02
2023-05-24T00:29:06.806Z,6.30
2023-05-24T00:31:33.879Z,14.30
2023-05-24T00:34:00.580Z,6.00
2023-05-24T00:36:27.247Z,9.48
2023-05-24T00:38:54.049Z,13.60
2023-05-24T00:41:20.688Z,9.48
2023-05-24T00:43:47.380Z,8.30
2023-05-24T00:46:25.603Z,10.27
2023-05-24T00:48:52.426Z,9.57
2023-05-24T00:51:19.456Z,8.10
2023-05-24T00:53:47.532Z,8.68
2023-05-24T00:56:16.287Z,8.98
2023-05-24T00:58:44.204Z,5.50
2023-05-24T01:01:11.060Z,7.97
2023-05-24T01:03:39.373Z,8.25
2023-05-24T01:06:07.750Z,8.27
2023-05-24T01:08:42.436Z,4.47
2023-05-24T01:11:27.493Z,8.27
2023-05-24T01:14:39.444Z,8.25
2023-05-24T01:17:53.009Z,6.28
2023-05-24T01:23:19.279Z,4.65
2023-05-24T01:26:08.944Z,7.15
2023-05-24T01:28:36.429Z,12.13
2023-05-24T01:31:04.304Z,7.80
2023-05-24T01:33:32.065Z,5.95
2023-05-24T01:35:58.782Z,8.48
2023-05-24T01:38:25.480Z,9.00
2023-05-24T01:41:01.176Z,6.43
2023-05-24T01:44:00.949Z,13.05
2023-05-24T01:46:37.864Z,9.07
2023-05-24T01:49:10.768Z,11.18
2023-05-24T01:51:44.270Z,10.13
2023-05-24T01:54:13.396Z,7.43
2023-05-24T01:56:43.981Z,5.45
2023-05-24T01:59:12.901Z,8.60
2023-05-24T02:01:40.103Z,9.85
2023-05-24T02:04:06.825Z,8.80
2023-05-24T02:06:33.425Z,8.52
2023-05-24T02:09:00.125Z,12.23
2023-05-24T02:11:27.628Z,9.10
2023-05-24T02:13:54.474Z,13.20
2023-05-24T02:16:24.676Z,11.50
2023-05-24T02:18:51.705Z,15.65
2023-05-24T02:21:18.854Z,14.13
2023-05-24T02:23:46.501Z,15.23
2023-05-24T02:26:13.881Z,11.05
2023-05-24T02:28:40.742Z,15.30
2023-05-24T02:31:08.481Z,22.38
2023-05-24T02:33:36.760Z,24.90
2023-05-24T02:36:04.427Z,19.10
2023-05-24T02:38:31.963Z,15.10
2023-05-24T02:40:58.667Z,12.02
2023-05-24T02:43:26.102Z,14.18
2023-05-24T02:45:53.769Z,13.82
2023-05-24T02:48:20.447Z,12.93
2023-05-24T02:50:47.028Z,13.20
2023-05-24T02:53:13.718Z,13.48
2023-05-24T02:55:40.517Z,15.00
2023-05-24T02:58:08.301Z,17.58
2023-05-24T03:00:37.105Z,15.13
2023-05-24T03:03:03.979Z,21.10
2023-05-24T03:05:31.972Z,18.48
2023-05-24T03:07:58.651Z,18.20
2023-05-24T03:10:25.259Z,15.25
2023-05-24T03:12:51.908Z,14.38
2023-05-24T03:15:18.848Z,20.17
2023-05-24T03:17:46.874Z,17.42
2023-05-24T03:20:13.599Z,19.80
2023-05-24T03:22:40.298Z,17.40
2023-05-24T03:25:08.753Z,18.27
2023-05-24T03:27:36.601Z,15.15
2023-05-24T03:30:03.679Z,11.40
2023-05-24T03:32:35.169Z,9.23
2023-05-24T03:35:02.675Z,12.27
2023-05-24T03:37:29.457Z,10.57
2023-05-24T03:39:56.070Z,11.18
2023-05-24T03:42:42.569Z,11.45
2023-05-24T03:45:10.677Z,7.65
2023-05-24T03:47:39.145Z,10.40
2023-05-24T03:50:06.308Z,17.75
2023-05-24T03:52:32.947Z,30.30
2023-05-24T03:54:59.540Z,20.38
2023-05-24T03:57:26.633Z,21.33
2023-05-24T03:59:53.391Z,17.35
2023-05-24T04:02:20.226Z,17.45
2023-05-24T04:04:46.961Z,17.50
2023-05-24T04:07:15.412Z,15.40
2023-05-24T04:09:43.128Z,16.20
2023-05-24T04:12:11.617Z,17.90
2023-05-24T04:14:41.552Z,25.80
2023-05-24T04:17:08.624Z,13.05
2023-05-24T04:19:35.300Z,18.10
2023-05-24T04:22:01.972Z,10.82
2023-05-24T04:24:28.901Z,14.60
2023-05-24T04:26:55.683Z,13.07
2023-05-24T04:29:26.652Z,21.95
2023-05-24T04:31:53.441Z,18.42
2023-05-24T04:34:22.206Z,18.98
2023-05-24T04:36:52.405Z,16.50
2023-05-24T04:39:19.021Z,16.17
2023-05-24T04:41:45.653Z,21.02
2023-05-24T04:44:12.293Z,22.20
2023-05-24T04:46:38.973Z,19.60
2023-05-24T04:49:05.973Z,22.08
2023-05-24T04:51:33.104Z,24.70
2023-05-24T04:54:01.412Z,19.20
2023-05-24T04:56:28.126Z,16.58
2023-05-24T04:58:54.735Z,17.85
2023-05-24T05:01:21.653Z,19.25
2023-05-24T05:03:48.354Z,25.85
2023-05-24T05:06:15.324Z,25.92
2023-05-24T05:08:41.997Z,25.33
2023-05-24T05:11:08.672Z,24.00
2023-05-24T05:13:35.595Z,21.48
2023-05-24T05:16:02.616Z,18.70
2023-05-24T05:18:29.308Z,21.92
2023-05-24T05:20:55.930Z,27.90
2023-05-24T05:23:22.663Z,23.67
2023-05-24T05:25:49.341Z,23.38
2023-05-24T05:28:15.954Z,32.75
2023-05-24T05:30:42.780Z,21.98
2023-05-24T05:33:09.799Z,35.38
2023-05-24T05:35:36.722Z,24.77
2023-05-24T05:38:03.640Z,26.58
2023-05-24T05:40:30.401Z,25.70
2023-05-24T05:42:57.032Z,22.35
2023-05-24T05:45:24.508Z,17.63
2023-05-24T05:47:51.378Z,28.92
2023-05-24T05:50:18.077Z,20.33
2023-05-24T05:52:44.716Z,11.25
2023-05-24T05:55:12.309Z,19.48
2023-05-24T05:57:39.038Z,16.20
2023-05-24T06:00:06.377Z,17.65
2023-05-24T06:02:38.666Z,19.33
2023-05-24T06:05:05.900Z,17.77
2023-05-24T06:07:37.538Z,20.77
2023-05-24T06:10:04.505Z,12.80
2023-05-24T06:12:31.133Z,17.10
2023-05-24T06:14:58.504Z,16.05
2023-05-24T06:17:25.182Z,15.50
2023-05-24T06:19:53.754Z,21.73
2023-05-24T06:22:21.632Z,16.30
2023-05-24T06:24:49.192Z,16.50
2023-05-24T06:27:15.896Z,17.60
2023-05-24T06:29:42.459Z,22.90
2023-05-24T06:32:09.090Z,13.98
2023-05-24T06:34:35.638Z,18.25
2023-05-24T06:37:02.543Z,16.20
2023-05-24T06:39:29.152Z,21.17
2023-05-24T06:41:55.973Z,18.48
2023-05-24T06:44:30.931Z,19.55
2023-05-24T06:46:57.560Z,18.77
2023-05-24T06:49:24.148Z,20.42
2023-05-24T06:51:50.729Z,16.63
2023-05-24T06:54:17.402Z,17.52
2023-05-24T06:56:43.940Z,20.05
2023-05-24T06:59:10.627Z,17.42
2023-05-24T07:01:39.828Z,19.08
2023-05-24T07:04:06.571Z,15.18
2023-05-24T07:06:33.248Z,18.92
2023-05-24T07:09:01.788Z,16.73
2023-05-24T07:11:28.726Z,18.05
2023-05-24T07:13:55.348Z,19.35
2023-05-24T07:16:21.887Z,20.10
2023-05-24T07:18:48.470Z,17.35
2023-05-24T07:21:15.190Z,13.15
2023-05-24T07:23:41.770Z,15.70
2023-05-24T07:26:09.118Z,18.95
2023-05-24T07:28:38.786Z,14.50
2023-05-24T07:31:05.572Z,11.70
2023-05-24T07:33:32.173Z,18.45
2023-05-24T07:35:58.747Z,18.75
2023-05-24T07:38:25.308Z,16.88
2023-05-24T07:40:52.797Z,17.17
2023-05-24T07:43:19.771Z,13.07
2023-05-24T07:45:46.417Z,20.42
2023-05-24T07:48:13.107Z,15.50
2023-05-24T07:50:39.752Z,14.90
2023-05-24T07:53:07.371Z,17.58
2023-05-24T07:55:34.024Z,16.67
2023-05-24T07:58:00.677Z,18.70
2023-05-24T08:00:27.749Z,20.30
2023-05-24T08:02:54.357Z,14.55
2023-05-24T08:05:21.017Z,16.42
2023-05-24T08:07:48.077Z,16.95
2023-05-24T08:10:14.674Z,14.32
2023-05-24T08:12:42.312Z,12.82
2023-05-24T08:15:09.321Z,13.98
2023-05-24T08:17:36.587Z,20.83
2023-05-24T08:20:06.678Z,13.55
2023-05-24T08:22:33.734Z,14.43
2023-05-24T08:25:00.367Z,12.25
2023-05-24T08:27:28.845Z,13.77
2023-05-24T08:29:57.112Z,14.77
2023-05-24T08:32:23.843Z,14.35
2023-05-24T08:34:50.467Z,13.60
2023-05-24T08:37:20.494Z,16.00
2023-05-24T08:39:47.084Z,13.82
2023-05-24T08:42:14.346Z,9.88
2023-05-24T08:44:47.816Z,10.70
2023-05-24T08:47:15.375Z,13.48
2023-05-24T08:49:42.999Z,10.65
2023-05-24T08:52:11.580Z,14.40
2023-05-24T08:54:38.687Z,14.43
2023-05-24T08:57:06.664Z,10.52
2023-05-24T08:59:33.485Z,12.07
2023-05-24T09:02:01.513Z,9.82
2023-05-24T09:04:29.084Z,12.50
2023-05-24T09:06:56.780Z,14.05
2023-05-24T09:09:28.716Z,12.10
2023-05-24T09:11:59.194Z,10.50
2023-05-24T09:14:25.846Z,11.30
2023-05-24T09:16:52.518Z,14.88
2023-05-24T09:19:20.078Z,13.63
2023-05-24T09:21:49.451Z,19.58
2023-05-24T09:24:16.537Z,15.45
2023-05-24T09:26:43.082Z,18.35
2023-05-24T09:29:09.706Z,16.20
2023-05-24T09:31:39.030Z,16.20
2023-05-24T09:34:14.608Z,18.95
2023-05-24T09:36:43.105Z,14.57
2023-05-24T09:39:11.441Z,21.08
2023-05-24T09:41:38.817Z,16.35
2023-05-24T09:44:05.827Z,15.93
2023-05-24T09:46:38.221Z,20.08
2023-05-24T09:51:38.266Z,12.73
2023-05-24T09:54:05.726Z,13.80
2023-05-24T09:56:35.809Z,17.58
2023-05-24T09:59:08.363Z,13.52
2023-05-24T10:01:36.252Z,19.95
2023-05-24T10:04:09.339Z,16.92
2023-05-24T10:06:38.520Z,18.02
2023-05-24T10:09:06.581Z,17.67
2023-05-24T10:11:36.001Z,13.85
2023-05-24T10:14:05.676Z,12.80
2023-05-24T10:16:32.726Z,12.82
2023-05-24T10:18:59.691Z,10.43
2023-05-24T10:21:31.592Z,17.45
2023-05-24T10:24:02.191Z,12.57
2023-05-24T10:26:32.663Z,16.45
2023-05-24T10:29:06.663Z,12.18
2023-05-24T10:31:36.613Z,15.27
2023-05-24T10:34:08.405Z,14.70
2023-05-24T10:36:37.003Z,9.30
2023-05-24T10:39:04.255Z,9.88
2023-05-24T10:41:39.168Z,16.02
2023-05-24T10:44:11.086Z,13.23
2023-05-24T10:47:08.535Z,14.47
2023-05-24T10:49:36.020Z,13.77
2023-05-24T10:52:08.613Z,16.77
2023-05-24T10:57:04.682Z,12.48
2023-05-24T10:59:39.441Z,15.65
2023-05-24T11:02:16.489Z,14.65
2023-05-24T11:04:46.897Z,16.30
2023-05-24T11:07:15.566Z,12.77
2023-05-24T11:10:02.997Z,9.75
2023-05-24T11:12:34.532Z,11.98
2023-05-24T11:15:03.229Z,16.85
2023-05-24T11:17:29.803Z,11.07
2023-05-24T11:19:56.858Z,19.90
2023-05-24T11:22:26.990Z,9.82
2023-05-24T11:24:53.748Z,17.50
2023-05-24T11:27:20.614Z,19.17
2023-05-24T11:29:48.707Z,15.10
2023-05-24T11:32:21.098Z,11.80
2023-05-24T11:37:17.714Z,12.50
2023-05-24T11:39:51.101Z,9.50
2023-05-24T11:42:17.809Z,14.77
2023-05-24T11:44:44.503Z,13.65
2023-05-24T11:47:13.106Z,12.63
2023-05-24T11:49:39.665Z,10.43
2023-05-24T11:52:07.373Z,13.15
2023-05-24T11:54:34.923Z,7.95
2023-05-24T11:57:02.114Z,9.68
2023-05-24T11:59:29.270Z,13.80
2023-05-24T12:02:04.322Z,13.55
2023-05-24T12:04:33.017Z,10.82
2023-05-24T12:07:00.157Z,10.30
2023-05-24T12:09:27.685Z,15.05
2023-05-24T12:11:55.354Z,14.85
2023-05-24T12:14:32.640Z,8.63
2023-05-24T12:17:00.805Z,14.65
2023-05-24T12:19:36.625Z,11.93
2023-05-24T12:22:08.020Z,13.18
2023-05-24T12:24:35.227Z,13.23
2023-05-24T12:27:06.582Z,9.35
2023-05-24T12:29:35.690Z,9.80
2023-05-24T12:32:03.050Z,9.13
2023-05-24T12:34:29.763Z,7.68
2023-05-24T12:36:56.668Z,10.70
2023-05-24T12:39:30.896Z,8.07
2023-05-24T12:41:59.414Z,10.20
2023-05-24T12:44:34.967Z,8.98
2023-05-24T12:47:03.495Z,6.28
2023-05-24T12:49:31.841Z,7.65
2023-05-24T12:51:58.866Z,8.35
2023-05-24T12:54:27.362Z,7.10
2023-05-24T12:56:56.625Z,7.80
2023-05-24T12:59:24.322Z,6.55
2023-05-24T13:01:51.941Z,9.07
2023-05-24T13:04:20.953Z,9.90
2023-05-24T13:06:48.711Z,9.60
2023-05-24T13:09:18.109Z,8.20
2023-05-24T13:11:45.486Z,10.40
2023-05-24T13:14:12.723Z,8.95
2023-05-24T13:16:39.729Z,9.27
2023-05-24T13:19:06.781Z,7.32
2023-05-24T13:21:33.649Z,9.90
2023-05-24T13:24:00.599Z,12.00
2023-05-24T13:26:27.585Z,7.10
2023-05-24T13:29:26.746Z,10.32
2023-05-24T13:31:41.434Z,11.57
2023-05-24T13:34:10.249Z,15.50
2023-05-24T13:36:37.969Z,12.52
2023-05-24T13:41:35.588Z,12.55
2023-05-24T13:44:02.596Z,12.07
2023-05-24T13:46:29.687Z,13.85
2023-05-24T13:48:56.949Z,13.23
2023-05-24T13:51:24.248Z,10.90
2023-05-24T13:53:51.017Z,9.65
2023-05-24T13:56:17.665Z,12.30
2023-05-24T13:58:44.562Z,11.80
2023-05-24T14:01:11.430Z,12.27
2023-05-24T14:03:40.233Z,11.52
2023-05-24T14:06:08.070Z,12.45
2023-05-24T14:08:35.129Z,10.88
2023-05-24T14:11:01.783Z,12.20
2023-05-24T14:15:57.893Z,11.68
2023-05-24T14:18:24.590Z,11.18
2023-05-24T14:20:51.224Z,11.25
2023-05-24T14:23:18.221Z,12.40
2023-05-24T14:25:46.771Z,14.98
2023-05-24T14:28:13.466Z,7.57
2023-05-24T14:30:40.074Z,8.55
2023-05-24T14:33:08.092Z,10.27
2023-05-24T14:35:38.251Z,10.93
2023-05-24T14:38:10.035Z,10.23
2023-05-24T14:40:39.017Z,10.82
2023-05-24T14:43:07.237Z,8.05
2023-05-24T14:45:33.931Z,10.05
2023-05-24T14:48:00.965Z,7.25
2023-05-24T14:50:27.908Z,8.38
2023-05-24T14:52:55.634Z,8.38
2023-05-24T14:55:22.738Z,11.18
2023-05-24T14:57:49.471Z,10.80
2023-05-24T15:00:18.516Z,6.30
2023-05-24T15:02:46.574Z,9.30
2023-05-24T15:05:13.463Z,12.82
2023-05-24T15:07:40.078Z,6.60
2023-05-24T15:10:07.056Z,5.15
2023-05-24T15:12:33.694Z,6.53
2023-05-24T15:15:00.320Z,7.57
2023-05-24T15:17:26.942Z,9.98
2023-05-24T15:19:54.254Z,7.57
2023-05-24T15:22:21.026Z,7.18
2023-05-24T15:24:47.607Z,11.73
2023-05-24T15:27:14.154Z,8.75
2023-05-24T15:29:40.864Z,8.40
2023-05-24T15:32:07.463Z,9.75
2023-05-24T15:34:34.035Z,9.70
2023-05-24T15:37:00.610Z,9.05
2023-05-24T15:39:27.202Z,7.45
2023-05-24T15:41:53.863Z,9.85
2023-05-24T15:44:21.294Z,9.55
2023-05-24T15:46:47.904Z,8.27
2023-05-24T15:49:14.462Z,9.30
2023-05-24T15:54:10.682Z,9.07
2023-05-24T15:56:37.491Z,13.00
2023-05-24T15:59:04.102Z,7.85
2023-05-24T16:01:30.774Z,12.23
2023-05-24T16:03:57.422Z,10.30
2023-05-24T16:06:24.064Z,7.22
2023-05-24T16:08:50.768Z,9.02
2023-05-24T16:11:18.696Z,8.95
2023-05-24T16:13:46.215Z,9.70
2023-05-24T16:16:12.801Z,8.90
2023-05-24T16:18:39.413Z,8.90
2023-05-24T16:21:06.673Z,17.10
2023-05-24T16:23:33.223Z,12.32
2023-05-24T16:25:59.855Z,7.55
2023-05-24T16:28:26.834Z,9.00
2023-05-24T16:30:57.290Z,9.55
2023-05-24T16:33:25.332Z,9.73
2023-05-24T16:35:55.679Z,7.60
2023-05-24T16:38:23.697Z,8.35
2023-05-24T16:40:51.330Z,7.40
2023-05-24T16:43:18.224Z,10.75
2023-05-24T16:45:45.398Z,15.38
2023-05-24T16:48:12.739Z,9.48
2023-05-24T16:50:39.481Z,8.20
2023-05-24T16:53:06.803Z,13.43
2023-05-24T16:55:33.563Z,8.18
2023-05-24T16:58:00.211Z,5.57
2023-05-24T17:00:34.205Z,7.95
2023-05-24T17:03:00.997Z,7.32
2023-05-24T17:05:27.851Z,6.80
2023-05-24T17:07:54.927Z,9.88
2023-05-24T17:10:21.757Z,11.35
2023-05-24T17:12:49.230Z,8.13
2023-05-24T17:15:15.940Z,7.35
2023-05-24T17:17:42.700Z,8.98
2023-05-24T17:20:09.974Z,7.10
2023-05-24T17:22:36.775Z,12.40
2023-05-24T17:25:04.290Z,9.40
2023-05-24T17:27:31.586Z,7.20
2023-05-24T17:29:58.263Z,10.98
2023-05-24T17:32:24.875Z,10.23
2023-05-24T17:34:51.637Z,5.10
2023-05-24T17:37:18.278Z,8.40
2023-05-24T17:39:45.005Z,6.53
2023-05-24T17:42:11.632Z,9.98
2023-05-24T17:44:38.252Z,10.70
2023-05-24T17:47:05.081Z,8.57
2023-05-24T17:49:32.439Z,7.30
2023-05-24T17:52:00.709Z,9.07
2023-05-24T17:54:27.876Z,9.35
2023-05-24T17:56:54.624Z,9.95
2023-05-24T17:59:21.428Z,9.13
2023-05-24T18:01:48.135Z,7.45
2023-05-24T18:04:16.128Z,9.98
2023-05-24T18:06:42.824Z,5.95
2023-05-24T18:09:09.859Z,8.52
2023-05-24T18:11:36.700Z,10.05
2023-05-24T18:14:03.922Z,8.25
2023-05-24T18:16:31.500Z,7.88
2023-05-24T18:18:58.338Z,9.18
2023-05-24T18:21:25.050Z,7.85
2023-05-24T18:23:51.607Z,5.93
2023-05-24T18:26:18.264Z,8.63
2023-05-24T18:28:44.979Z,6.97
2023-05-24T18:31:12.107Z,10.30
2023-05-24T18:33:39.158Z,6.55
2023-05-24T18:36:06.359Z,5.63
2023-05-24T18:38:36.798Z,6.90
2023-05-24T18:41:06.028Z,5.07
2023-05-24T18:43:33.417Z,7.25
2023-05-24T18:46:00.002Z,9.20
2023-05-24T18:48:26.764Z,9.15
2023-05-24T18:50:53.941Z,7.32
2023-05-24T18:53:20.586Z,6.22
2023-05-24T18:55:47.431Z,8.70
2023-05-24T18:58:15.032Z,8.32
2023-05-24T19:00:41.735Z,6.75
2023-05-24T19:03:11.920Z,7.13
2023-05-24T19:05:42.557Z,7.28
2023-05-24T19:08:10.723Z,6.27
2023-05-24T19:10:37.311Z,9.18
2023-05-24T19:13:04.053Z,9.50
2023-05-24T19:15:30.711Z,8.45
2023-05-24T19:17:57.998Z,8.57
2023-05-24T19:20:24.896Z,8.30
2023-05-24T19:22:51.807Z,6.35
2023-05-24T19:25:19.312Z,8.05
2023-05-24T19:27:58.433Z,8.02
2023-05-24T19:30:26.987Z,7.00
2023-05-24T19:32:53.744Z,6.65
2023-05-24T19:35:20.392Z,5.45
2023-05-24T19:37:47.269Z,15.35
2023-05-24T19:40:13.850Z,6.28
2023-05-24T19:42:40.555Z,5.55
2023-05-24T19:45:09.313Z,7.10
2023-05-24T19:47:35.980Z,6.63
2023-05-24T19:50:03.830Z,7.03
2023-05-24T19:52:30.492Z,11.13
2023-05-24T19:54:57.280Z,8.82
2023-05-24T19:57:24.077Z,5.93
2023-05-24T19:59:50.722Z,5.68
2023-05-24T20:02:17.270Z,6.35
2023-05-24T20:04:44.124Z,7.40
2023-05-24T20:07:11.300Z,7.50
2023-05-24T20:09:38.149Z,8.55
2023-05-24T20:12:05.013Z,6.95
2023-05-24T20:14:31.894Z,6.13
2023-05-24T20:16:59.376Z,8.45
2023-05-24T20:19:27.143Z,8.30
2023-05-24T20:21:54.119Z,7.03
2023-05-24T20:24:20.870Z,7.55
2023-05-24T20:26:47.515Z,9.30
2023-05-24T20:29:14.232Z,6.72
2023-05-24T20:31:41.327Z,8.30
2023-05-24T20:34:08.205Z,10.73
2023-05-24T20:36:34.859Z,12.95
2023-05-24T20:39:01.507Z,9.43
2023-05-24T20:41:30.417Z,18.73
2023-05-24T20:43:57.099Z,16.20
2023-05-24T20:46:23.928Z,11.73
2023-05-24T20:48:51.553Z,8.80
2023-05-24T20:51:19.291Z,10.02
2023-05-24T20:53:46.761Z,6.50
2023-05-24T20:56:13.559Z,6.45
2023-05-24T20:58:41.442Z,9.10
2023-05-24T21:01:08.683Z,7.53
2023-05-24T21:03:35.611Z,9.18
2023-05-24T21:06:02.698Z,9.57
2023-05-24T21:08:29.407Z,8.40
2023-05-24T21:10:56.504Z,5.85
2023-05-24T21:13:25.336Z,8.57
2023-05-24T21:15:52.092Z,7.97
2023-05-24T21:18:18.824Z,5.25
2023-05-24T21:20:45.848Z,9.25
2023-05-24T21:23:13.514Z,7.43
2023-05-24T21:25:40.240Z,5.22
2023-05-24T21:28:06.941Z,6.97
2023-05-24T21:30:33.584Z,6.63
2023-05-24T21:33:00.297Z,5.78
2023-05-24T21:35:27.753Z,6.45
2023-05-24T21:37:54.459Z,4.95
2023-05-24T21:40:21.079Z,4.68
2023-05-24T21:42:47.722Z,6.05
2023-05-24T21:45:14.469Z,5.13
2023-05-24T21:47:42.444Z,6.82
2023-05-24T21:50:09.571Z,5.93
2023-05-24T21:52:36.272Z,7.65
2023-05-24T21:55:03.042Z,6.80
2023-05-24T21:57:29.642Z,9.00
2023-05-24T21:59:56.349Z,4.80
2023-05-24T22:02:22.985Z,11.45
2023-05-24T22:04:49.676Z,11.98
2023-05-24T22:07:16.302Z,9.20
2023-05-24T22:09:42.881Z,7.65
2023-05-24T22:12:09.652Z,7.30
2023-05-24T22:14:36.295Z,9.30
2023-05-24T22:17:02.936Z,5.85
2023-05-24T22:19:40.126Z,6.55
2023-05-24T22:22:10.336Z,7.30
2023-05-24T22:24:36.985Z,6.53
2023-05-24T22:27:03.824Z,6.43
2023-05-24T22:29:30.666Z,4.25
2023-05-24T22:31:57.401Z,4.93
2023-05-24T22:34:28.655Z,2.97
2023-05-24T22:36:55.539Z,5.55
2023-05-24T22:39:22.175Z,8.48
2023-05-24T22:41:49.282Z,6.72
2023-05-24T22:44:16.695Z,12.25
2023-05-24T22:46:43.510Z,6.65
2023-05-24T22:49:13.167Z,8.18
2023-05-24T22:51:44.135Z,7.03
2023-05-24T22:54:11.731Z,9.50
2023-05-24T22:56:38.911Z,8.70
2023-05-24T22:59:06.434Z,6.93
2023-05-24T23:01:33.730Z,13.82
2023-05-24T23:04:15.906Z,7.15
2023-05-24T23:06:47.196Z,10.60
2023-05-24T23:09:13.845Z,6.32
2023-05-24T23:11:42.866Z,8.07
2023-05-24T23:14:11.116Z,6.95
2023-05-24T23:16:45.490Z,9.10
2023-05-24T23:19:18.254Z,7.72
2023-05-24T23:21:45.546Z,13.68
2023-05-24T23:24:14.489Z,11.73
2023-05-24T23:26:42.052Z,11.65
2023-05-24T23:29:09.295Z,8.02
2023-05-24T23:31:36.209Z,10.52
2023-05-24T23:34:03.924Z,6.47
2023-05-24T23:36:30.463Z,11.15
2023-05-24T23:38:57.128Z,9.77
2023-05-24T23:41:23.733Z,17.92
2023-05-24T23:43:52.290Z,8.68
2023-05-24T23:46:19.277Z,12.35
2023-05-24T23:48:46.168Z,10.80
2023-05-24T23:51:13.029Z,11.18
2023-05-24T23:53:39.763Z,7.78
2023-05-24T23:56:06.507Z,8.25
2023-05-24T23:58:33.898Z,14.32
